Observations for Trim Market St
| Time | AQI | Temp °C | Hum % | Pres Pa | CO μg/m³ | H₂S μg/m³ | NO μg/m³ | NO₂ μg/m³ | O₃ μg/m³ | SO₂ μg/m³ | PM1 μg/m³ | PM2.5 μg/m³ | PM10 μg/m³ |
|---|---|---|---|---|---|---|---|---|---|---|---|---|---|
| Friday 21 August 2026 | |||||||||||||
| 23:23 | 2 | 12.3 | 71 | 55,352 | 0.4 | 0 | 4.76 | 24.84 | 26.04 | 0 | 2.85 | 4.46 | 6.91 |
| 23:22 | 2 | 12.4 | 71 | 55,396 | 0.41 | 0 | 4.22 | 24.41 | 27.12 | 0 | 2.14 | 3.49 | 5.67 |
| 23:21 | 2 | 12.4 | 71 | 55,438 | 0.41 | 0 | 3.84 | 14.99 | 40.45 | 0 | 2.14 | 3.5 | 6.91 |
| 23:19 | 2 | 12.4 | 71 | 55,472 | 0.61 | 0 | 3.25 | 26.45 | 24.35 | 0 | 2.14 | 3.5 | 5.66 |
| 23:17 | 2 | 12.5 | 71 | 55,554 | 0.33 | 0 | 5.75 | 13.37 | 41.17 | 0 | 1.43 | 2.54 | 4.42 |
| 23:16 | 2 | 12.5 | 71 | 55,592 | 0.32 | 0 | 16.83 | 14.84 | 40.59 | 0 | 0.71 | 2.05 | 3.79 |
| 23:15 | 2 | 12.5 | 71 | 55,624 | 0.36 | 0 | 17.11 | 16.37 | 38.64 | 0 | 2.85 | 4.48 | 6.91 |
| 23:14 | 2 | 12.5 | 71 | 55,659 | 0.36 | 0 | 16.64 | 24.95 | 27.06 | 0 | 2.14 | 3.03 | 5.66 |
| 23:13 | 2 | 12.6 | 70 | 55,694 | 0.39 | 0 | 12.82 | 36.29 | 11.72 | 0 | 2.85 | 4.49 | 7.53 |
| 23:12 | 2 | 12.6 | 70 | 55,734 | 0.36 | 0 | 4.87 | 29.55 | 20.07 | 0 | 1.43 | 3.04 | 5.03 |
| 23:10 | 2 | 12.6 | 70 | 55,826 | 0.3 | 0 | 2.87 | 11.8 | 45.97 | 0 | 1.43 | 2.55 | 4.4 |
| 23:09 | 2 | 12.6 | 70 | 55,871 | 0.31 | 0 | 2.82 | 11.05 | 48.24 | 0 | 2.14 | 3.04 | 5.03 |
| 23:08 | 2 | 12.7 | 70 | 55,920 | 0.34 | 0 | 2.75 | 11.18 | 47.03 | 0 | 2.14 | 3.53 | 5.65 |
| 23:04 | 2 | 12.7 | 70 | 56,048 | 0.32 | 0 | 3.6 | 11.35 | 48.22 | 0 | 1.43 | 3.55 | 6.9 |
| 23:03 | 2 | 12.8 | 70 | 56,075 | 0.3 | 0 | 3.32 | 13.18 | 44.46 | 0 | 2.14 | 3.55 | 7.53 |
| 23:00 | 2 | 12.8 | 70 | 56,168 | 0.29 | 0 | 2.69 | 12.43 | 50 | 0 | 2.14 | 3.55 | 6.27 |
| 22:56 | 2 | 12.9 | 69 | 56,304 | 0.3 | 0 | 2.33 | 12.29 | 54.35 | 0 | 0.71 | 2.6 | 5.01 |
| 22:49 | 2 | 13.1 | 69 | 56,488 | 0.28 | 0 | 2.72 | 15.03 | 47.2 | 0 | 1.43 | 3.1 | 5.63 |
| 22:48 | 2 | 13.1 | 69 | 56,518 | 0.31 | 0 | 2.63 | 19.72 | 40.49 | 0 | 1.43 | 3.59 | 5.63 |
| 22:47 | 2 | 13.1 | 69 | 56,551 | 0.27 | 0 | 2.57 | 12.26 | 49.4 | 0 | 0.71 | 2.62 | 5 |